createdAt,value
2023-04-15T00:01:07.017Z,2.50
2023-04-15T00:03:35.606Z,2.30
2023-04-15T00:06:03.778Z,2.30
2023-04-15T00:08:31.842Z,2.10
2023-04-15T00:11:02.816Z,2.70
2023-04-15T00:13:32.898Z,3.73
2023-04-15T00:16:00.712Z,2.70
2023-04-15T00:18:29.474Z,2.27
2023-04-15T00:20:57.265Z,3.40
2023-04-15T00:23:25.040Z,3.60
2023-04-15T00:25:52.916Z,3.33
2023-04-15T00:28:21.054Z,3.90
2023-04-15T00:30:50.142Z,3.67
2023-04-15T00:33:18.220Z,3.93
2023-04-15T00:35:46.003Z,4.33
2023-04-15T00:38:14.144Z,3.80
2023-04-15T00:40:42.080Z,3.90
2023-04-15T00:43:09.874Z,4.60
2023-04-15T00:45:37.635Z,4.60
2023-04-15T00:48:07.215Z,4.63
2023-04-15T00:50:35.066Z,4.50
2023-04-15T00:53:02.854Z,5.00
2023-04-15T00:55:30.678Z,4.87
2023-04-15T00:57:58.720Z,5.03
2023-04-15T01:00:26.895Z,5.10
2023-04-15T01:02:54.952Z,4.90
2023-04-15T01:05:25.099Z,4.77
2023-04-15T01:07:53.001Z,4.97
2023-04-15T01:10:21.341Z,5.20
2023-04-15T01:12:49.161Z,5.27
2023-04-15T01:15:17.164Z,5.70
2023-04-15T01:17:44.937Z,5.90
2023-04-15T01:20:12.870Z,5.83
2023-04-15T01:22:42.282Z,5.77
2023-04-15T01:25:13.160Z,5.37
2023-04-15T01:27:42.818Z,5.50
2023-04-15T01:30:11.584Z,5.93
2023-04-15T01:32:39.422Z,5.90
2023-04-15T01:35:07.852Z,5.73
2023-04-15T01:37:35.891Z,5.93
2023-04-15T01:40:03.605Z,5.77
2023-04-15T01:42:31.392Z,5.97
2023-04-15T01:45:00.463Z,5.50
2023-04-15T01:47:28.200Z,5.40
2023-04-15T01:49:56.187Z,5.57
2023-04-15T01:52:24.001Z,5.73
2023-04-15T01:54:52.466Z,4.93
2023-04-15T01:57:20.308Z,5.27
2023-04-15T01:59:48.046Z,4.63
2023-04-15T02:02:17.478Z,4.80
2023-04-15T02:04:45.569Z,4.47
2023-04-15T02:07:13.273Z,4.87
2023-04-15T02:09:41.012Z,4.03
2023-04-15T02:12:08.782Z,4.07
2023-04-15T02:14:36.714Z,4.40
2023-04-15T02:17:07.418Z,4.07
2023-04-15T02:19:36.846Z,3.77
2023-04-15T02:22:04.576Z,4.20
2023-04-15T02:24:32.281Z,3.90
2023-04-15T02:27:00.050Z,4.37
2023-04-15T02:29:27.848Z,3.97
2023-04-15T02:31:55.665Z,3.90
2023-04-15T02:34:23.441Z,3.83
2023-04-15T02:36:56.020Z,3.87
2023-04-15T02:39:24.454Z,3.43
2023-04-15T02:41:52.522Z,3.30
2023-04-15T02:44:20.541Z,3.40
2023-04-15T02:46:50.815Z,3.77
2023-04-15T02:49:18.578Z,4.23
2023-04-15T02:51:48.721Z,3.10
2023-04-15T02:54:19.461Z,3.43
2023-04-15T02:56:47.258Z,3.87
2023-04-15T02:59:15.018Z,3.10
2023-04-15T03:01:42.799Z,3.37
2023-04-15T03:04:10.837Z,2.60
2023-04-15T03:06:38.673Z,3.13
2023-04-15T03:09:06.529Z,3.37
2023-04-15T03:11:37.125Z,3.10
2023-04-15T03:14:04.946Z,3.47
2023-04-15T03:16:32.955Z,2.23
2023-04-15T03:19:01.013Z,2.87
2023-04-15T03:21:28.963Z,2.87
2023-04-15T03:23:57.284Z,1.97
2023-04-15T03:26:26.312Z,3.17
2023-04-15T03:28:55.457Z,2.30
2023-04-15T03:31:23.343Z,3.00
2023-04-15T03:33:51.265Z,2.37
2023-04-15T03:36:19.090Z,2.37
2023-04-15T03:41:26.545Z,2.60
2023-04-15T03:43:55.761Z,3.10
2023-04-15T03:46:23.520Z,2.90
2023-04-15T03:48:51.447Z,2.97
2023-04-15T03:51:19.232Z,2.30
2023-04-15T03:53:47.020Z,2.63
2023-04-15T03:56:14.779Z,2.40
2023-04-15T03:58:42.568Z,2.87
2023-04-15T04:01:11.816Z,3.17
2023-04-15T04:03:39.813Z,4.60
2023-04-15T04:06:08.022Z,2.77
2023-04-15T04:08:35.786Z,2.80
2023-04-15T04:11:03.536Z,3.43
2023-04-15T04:13:31.378Z,3.00
2023-04-15T04:15:59.201Z,3.07
2023-04-15T04:18:28.445Z,3.50
2023-04-15T04:20:56.312Z,3.53
2023-04-15T04:23:24.212Z,3.80
2023-04-15T04:25:52.634Z,2.97
2023-04-15T04:28:20.418Z,2.83
2023-04-15T04:30:48.263Z,3.37
2023-04-15T04:33:15.977Z,3.53
2023-04-15T04:35:45.164Z,2.67
2023-04-15T04:38:12.914Z,3.00
2023-04-15T04:40:41.361Z,2.40
2023-04-15T04:43:09.354Z,2.50
2023-04-15T04:45:37.305Z,3.27
2023-04-15T04:48:07.251Z,2.60
2023-04-15T04:50:35.402Z,2.53
2023-04-15T04:53:04.514Z,2.53
2023-04-15T04:55:32.905Z,3.13
2023-04-15T04:58:00.587Z,1.93
2023-04-15T05:00:28.428Z,2.60
2023-04-15T05:02:56.562Z,2.40
2023-04-15T05:05:24.403Z,2.00
2023-04-15T05:07:52.155Z,2.47
2023-04-15T05:10:21.690Z,2.73
2023-04-15T05:12:49.481Z,2.53
2023-04-15T05:15:17.235Z,2.90
2023-04-15T05:17:45.096Z,3.03
2023-04-15T05:20:14.054Z,2.93
2023-04-15T05:22:41.834Z,3.00
2023-04-15T05:25:09.962Z,3.23
2023-04-15T05:27:39.072Z,2.40
2023-04-15T05:30:08.889Z,3.17
2023-04-15T05:32:36.781Z,3.93
2023-04-15T05:35:04.842Z,3.93
2023-04-15T05:37:32.616Z,4.33
2023-04-15T05:40:00.422Z,4.57
2023-04-15T05:42:28.261Z,4.00
2023-04-15T05:44:57.386Z,3.27
2023-04-15T05:47:25.178Z,3.90
2023-04-15T05:49:53.032Z,2.83
2023-04-15T05:52:20.785Z,3.30
2023-04-15T05:54:48.630Z,3.00
2023-04-15T05:57:16.363Z,2.70
2023-04-15T05:59:44.754Z,3.87
2023-04-15T06:02:13.940Z,3.67
2023-04-15T06:04:42.756Z,3.10
2023-04-15T06:07:10.887Z,3.20
2023-04-15T06:09:38.607Z,3.10
2023-04-15T06:12:12.031Z,2.73
2023-04-15T06:14:40.566Z,2.80
2023-04-15T06:17:08.907Z,2.60
2023-04-15T06:19:37.994Z,2.80
2023-04-15T06:22:07.283Z,2.60
2023-04-15T06:24:37.021Z,2.67
2023-04-15T06:27:04.895Z,2.83
2023-04-15T06:29:32.715Z,2.50
2023-04-15T06:32:00.624Z,2.60
2023-04-15T06:34:28.393Z,3.57
2023-04-15T06:36:57.566Z,2.57
2023-04-15T06:39:25.297Z,2.30
2023-04-15T06:41:53.062Z,2.63
2023-04-15T06:44:20.918Z,2.20
2023-04-15T06:46:48.635Z,2.53
2023-04-15T06:49:16.506Z,2.63
2023-04-15T06:51:44.307Z,3.37
2023-04-15T06:54:13.382Z,2.30
2023-04-15T06:56:42.003Z,2.53
2023-04-15T06:59:09.813Z,2.00
2023-04-15T07:01:37.726Z,2.43
2023-04-15T07:04:05.676Z,2.20
2023-04-15T07:06:33.877Z,2.33
2023-04-15T07:09:02.014Z,2.00
2023-04-15T07:11:31.529Z,2.30
2023-04-15T07:13:59.626Z,2.83
2023-04-15T07:16:29.791Z,1.90
2023-04-15T07:18:57.801Z,1.90
2023-04-15T07:21:25.745Z,3.13
2023-04-15T07:23:53.454Z,2.30
2023-04-15T07:26:21.524Z,1.57
2023-04-15T07:28:50.705Z,2.47
2023-04-15T07:31:18.498Z,2.30
2023-04-15T07:33:46.590Z,2.13
2023-04-15T07:36:14.449Z,1.67
2023-04-15T07:38:42.598Z,1.90
2023-04-15T07:41:10.600Z,2.60
2023-04-15T07:43:38.772Z,1.90
2023-04-15T07:46:08.333Z,2.10
2023-04-15T07:48:37.599Z,2.30
2023-04-15T07:51:05.953Z,1.50
2023-04-15T07:53:34.123Z,2.30
2023-04-15T07:56:01.911Z,1.67
2023-04-15T07:58:29.933Z,1.83
2023-04-15T08:00:58.844Z,1.90
2023-04-15T08:03:27.969Z,2.00
2023-04-15T08:05:55.864Z,4.10
2023-04-15T08:08:23.612Z,1.50
2023-04-15T08:10:52.814Z,1.63
2023-04-15T08:13:20.850Z,2.67
2023-04-15T08:15:56.135Z,1.77
2023-04-15T08:18:23.902Z,1.93
2023-04-15T08:20:53.166Z,1.60
2023-04-15T08:23:20.950Z,2.03
2023-04-15T08:25:49.954Z,1.27
2023-04-15T08:28:19.234Z,2.33
2023-04-15T08:30:46.890Z,2.60
2023-04-15T08:33:14.577Z,1.67
2023-04-15T08:35:42.514Z,2.13
2023-04-15T08:38:11.779Z,3.00
2023-04-15T08:40:43.048Z,1.93
2023-04-15T08:43:12.920Z,2.90
2023-04-15T08:45:40.729Z,1.97
2023-04-15T08:48:09.035Z,2.07
2023-04-15T08:50:37.201Z,2.33
2023-04-15T08:53:04.920Z,2.67
2023-04-15T08:55:35.807Z,2.13
2023-04-15T08:58:04.062Z,2.33
2023-04-15T09:00:32.461Z,2.60
2023-04-15T09:03:02.023Z,2.30
2023-04-15T09:05:33.436Z,2.33
2023-04-15T09:08:01.511Z,1.60
2023-04-15T09:10:29.430Z,2.50
2023-04-15T09:12:58.861Z,1.73
2023-04-15T09:15:27.522Z,1.87
2023-04-15T09:17:55.426Z,2.13
2023-04-15T09:20:23.240Z,1.60
2023-04-15T09:22:51.949Z,3.43
2023-04-15T09:25:31.659Z,1.40
2023-04-15T09:28:03.054Z,2.70
2023-04-15T09:30:31.367Z,1.40
2023-04-15T09:33:00.600Z,2.00
2023-04-15T09:35:28.550Z,3.77
2023-04-15T09:38:04.190Z,3.20
2023-04-15T09:40:36.441Z,4.03
2023-04-15T09:43:06.537Z,2.93
2023-04-15T09:45:38.204Z,1.97
2023-04-15T09:48:18.321Z,1.90
2023-04-15T09:50:46.233Z,2.13
2023-04-15T09:53:17.904Z,3.10
2023-04-15T09:55:47.119Z,4.50
2023-04-15T09:58:23.446Z,4.50
2023-04-15T10:00:53.158Z,1.70
2023-04-15T10:03:23.791Z,2.47
2023-04-15T10:05:52.956Z,3.00
2023-04-15T10:08:22.766Z,1.40
2023-04-15T10:10:51.901Z,2.07
2023-04-15T10:13:24.910Z,2.20
2023-04-15T10:15:55.063Z,1.83
2023-04-15T10:18:25.130Z,3.33
2023-04-15T10:20:53.194Z,2.70
2023-04-15T10:23:21.870Z,2.53
2023-04-15T10:25:50.565Z,2.10
2023-04-15T10:28:18.336Z,1.80
2023-04-15T10:30:48.056Z,3.20
2023-04-15T10:33:17.302Z,2.27
2023-04-15T10:35:46.355Z,1.90
2023-04-15T10:38:33.673Z,2.93
2023-04-15T10:41:19.492Z,3.00
2023-04-15T10:43:52.836Z,1.50
2023-04-15T10:46:23.822Z,3.23
2023-04-15T10:48:52.970Z,2.73
2023-04-15T10:51:31.656Z,2.57
2023-04-15T10:54:00.799Z,2.13
2023-04-15T10:56:30.210Z,3.70
2023-04-15T10:59:00.482Z,3.27
2023-04-15T11:01:54.443Z,4.37
2023-04-15T11:04:53.867Z,2.57
2023-04-15T11:07:51.053Z,2.53
2023-04-15T11:10:55.165Z,3.37
2023-04-15T11:13:33.068Z,3.60
2023-04-15T11:16:04.558Z,2.77
2023-04-15T11:18:35.522Z,2.03
2023-04-15T11:21:08.160Z,4.10
2023-04-15T11:23:38.737Z,1.93
2023-04-15T11:26:09.470Z,3.10
2023-04-15T11:28:39.021Z,1.53
2023-04-15T11:31:08.785Z,2.53
2023-04-15T11:33:37.950Z,3.13
2023-04-15T11:36:06.342Z,2.93
2023-04-15T11:38:35.647Z,5.50
2023-04-15T11:41:05.036Z,2.97
2023-04-15T11:43:35.401Z,2.93
2023-04-15T11:46:04.741Z,3.27
2023-04-15T11:48:33.802Z,3.40
2023-04-15T11:51:04.514Z,2.10
2023-04-15T11:53:40.887Z,3.97
2023-04-15T11:56:09.977Z,4.10
2023-04-15T11:58:39.405Z,3.27
2023-04-15T12:01:08.276Z,2.73
2023-04-15T12:03:40.175Z,3.23
2023-04-15T12:06:12.795Z,4.93
2023-04-15T12:09:11.096Z,2.57
2023-04-15T12:11:43.992Z,3.23
2023-04-15T12:14:20.685Z,3.17
2023-04-15T12:16:51.742Z,4.10
2023-04-15T12:19:25.124Z,4.33
2023-04-15T12:22:02.028Z,3.60
2023-04-15T12:24:32.487Z,3.67
2023-04-15T12:27:03.740Z,3.67
2023-04-15T12:29:32.622Z,4.60
2023-04-15T12:32:06.402Z,3.63
2023-04-15T12:34:35.664Z,4.07
2023-04-15T12:37:07.004Z,3.10
2023-04-15T12:39:37.467Z,2.80
2023-04-15T12:42:06.028Z,3.07
2023-04-15T12:44:34.330Z,3.77
2023-04-15T12:47:02.210Z,4.40
2023-04-15T12:49:30.225Z,4.73
2023-04-15T12:52:00.027Z,2.93
2023-04-15T12:54:29.432Z,3.80
2023-04-15T12:56:57.803Z,4.40
2023-04-15T12:59:25.615Z,2.20
2023-04-15T13:01:54.444Z,3.03
2023-04-15T13:04:22.887Z,3.43
2023-04-15T13:06:51.313Z,2.73
2023-04-15T13:09:19.093Z,2.30
2023-04-15T13:11:48.313Z,3.57
2023-04-15T13:14:16.114Z,2.30
2023-04-15T13:16:43.954Z,2.80
2023-04-15T13:19:12.796Z,2.00
2023-04-15T13:21:40.606Z,3.23
2023-04-15T13:24:09.390Z,2.37
2023-04-15T13:26:37.901Z,2.53
2023-04-15T13:29:07.304Z,2.27
2023-04-15T13:31:35.104Z,3.87
2023-04-15T13:34:03.049Z,1.73
2023-04-15T13:36:31.561Z,3.33
2023-04-15T13:38:59.997Z,2.73
2023-04-15T13:41:27.792Z,2.10
2023-04-15T13:43:55.743Z,3.53
2023-04-15T13:46:26.133Z,3.20
2023-04-15T13:48:55.900Z,2.40
2023-04-15T13:51:26.050Z,3.17
2023-04-15T13:53:53.924Z,2.40
2023-04-15T13:56:21.674Z,2.50
2023-04-15T13:58:49.471Z,2.73
2023-04-15T14:01:17.772Z,2.87
2023-04-15T14:03:48.312Z,4.97
2023-04-15T14:06:16.189Z,4.70
2023-04-15T14:08:44.982Z,6.70
2023-04-15T14:11:12.732Z,3.50
2023-04-15T14:13:40.736Z,3.93
2023-04-15T14:16:08.790Z,5.63
2023-04-15T14:18:37.354Z,5.87
2023-04-15T14:21:07.359Z,5.03
2023-04-15T14:23:35.196Z,5.87
2023-04-15T14:26:02.947Z,5.60
2023-04-15T14:28:30.749Z,5.23
2023-04-15T14:30:58.587Z,8.00
2023-04-15T14:33:26.456Z,5.90
2023-04-15T14:35:54.249Z,7.40
2023-04-15T14:38:23.456Z,6.73
2023-04-15T14:40:51.221Z,5.17
2023-04-15T14:43:19.045Z,4.90
2023-04-15T14:45:46.951Z,4.93
2023-04-15T14:48:14.933Z,5.73
2023-04-15T14:50:44.151Z,4.37
2023-04-15T14:53:11.989Z,3.27
2023-04-15T14:55:41.334Z,3.50
2023-04-15T14:58:09.453Z,3.77
2023-04-15T15:00:39.289Z,2.90
2023-04-15T15:03:12.508Z,3.83
2023-04-15T15:05:40.738Z,3.17
2023-04-15T15:08:10.596Z,2.97
2023-04-15T15:10:48.019Z,2.83
2023-04-15T15:13:19.236Z,1.40
2023-04-15T15:15:49.293Z,1.80
2023-04-15T15:18:18.960Z,1.87
2023-04-15T15:20:47.310Z,1.87
2023-04-15T15:23:15.971Z,2.23
2023-04-15T15:25:43.807Z,1.77
2023-04-15T15:28:12.822Z,3.23
2023-04-15T15:30:41.952Z,1.87
2023-04-15T15:33:10.040Z,1.70
2023-04-15T15:35:37.963Z,2.53
2023-04-15T15:38:06.351Z,2.30
2023-04-15T15:40:34.288Z,1.40
2023-04-15T15:43:02.074Z,1.80
2023-04-15T15:45:29.870Z,1.87
2023-04-15T15:47:59.385Z,1.90
2023-04-15T15:50:27.404Z,2.30
2023-04-15T15:52:55.473Z,2.27
2023-04-15T15:55:25.286Z,2.73
2023-04-15T15:57:55.479Z,2.13
2023-04-15T16:00:24.775Z,1.40
2023-04-15T16:03:06.769Z,1.93
2023-04-15T16:05:36.760Z,1.67
2023-04-15T16:08:04.517Z,2.30
2023-04-15T16:10:32.268Z,2.33
2023-04-15T16:13:00.372Z,2.70
2023-04-15T16:15:30.455Z,1.80
2023-04-15T16:17:58.611Z,2.30
2023-04-15T16:20:26.686Z,2.53
2023-04-15T16:22:58.400Z,2.13
2023-04-15T16:25:26.172Z,3.20
2023-04-15T16:28:00.882Z,2.47
2023-04-15T16:30:33.678Z,2.23
2023-04-15T16:33:01.473Z,1.40
2023-04-15T16:35:29.412Z,1.50
2023-04-15T16:37:58.628Z,1.20
2023-04-15T16:40:26.743Z,1.53
2023-04-15T16:42:55.039Z,2.37
2023-04-15T16:45:23.508Z,2.20
2023-04-15T16:47:51.849Z,2.43
2023-04-15T16:50:19.761Z,1.17
2023-04-15T16:52:48.504Z,1.47
2023-04-15T16:55:17.704Z,1.47
2023-04-15T16:58:02.201Z,1.13
2023-04-15T17:00:32.132Z,1.93
2023-04-15T17:03:00.206Z,1.40
2023-04-15T17:05:28.313Z,1.63
2023-04-15T17:07:56.368Z,1.53
2023-04-15T17:10:25.782Z,1.70
2023-04-15T17:12:53.923Z,1.50
2023-04-15T17:15:21.999Z,1.60
2023-04-15T17:17:49.890Z,1.57
2023-04-15T17:20:18.375Z,1.70
2023-04-15T17:22:46.776Z,2.07
2023-04-15T17:25:14.800Z,1.93
2023-04-15T17:27:43.974Z,1.80
2023-04-15T17:30:12.081Z,1.83
2023-04-15T17:32:40.242Z,2.17
2023-04-15T17:35:09.174Z,2.20
2023-04-15T17:37:37.205Z,3.30
2023-04-15T17:40:08.018Z,3.50
2023-04-15T17:42:36.618Z,2.83
2023-04-15T17:45:07.347Z,3.40
2023-04-15T17:47:35.572Z,4.60
2023-04-15T17:50:03.658Z,2.80
2023-04-15T17:52:31.433Z,3.13
2023-04-15T17:54:59.362Z,3.77
2023-04-15T17:57:27.407Z,3.13
2023-04-15T17:59:55.157Z,1.87
2023-04-15T18:02:24.356Z,2.60
2023-04-15T18:04:52.508Z,1.73
2023-04-15T18:07:20.375Z,2.30
2023-04-15T18:09:50.451Z,1.37
2023-04-15T18:12:18.339Z,2.70
2023-04-15T18:14:47.281Z,2.40
2023-04-15T18:17:15.271Z,2.27
2023-04-15T18:19:45.850Z,1.13
2023-04-15T18:22:13.703Z,2.33
2023-04-15T18:24:41.708Z,1.07
2023-04-15T18:27:09.568Z,1.00
2023-04-15T18:29:37.655Z,1.27
2023-04-15T18:32:05.534Z,2.30
2023-04-15T18:34:33.307Z,1.63
2023-04-15T18:37:02.503Z,1.17
2023-04-15T18:39:30.732Z,1.03
2023-04-15T18:41:58.819Z,0.97
2023-04-15T18:44:26.656Z,1.13
2023-04-15T18:46:56.186Z,2.67
2023-04-15T18:49:23.988Z,1.53
2023-04-15T18:51:53.154Z,0.97
2023-04-15T18:54:22.312Z,2.50
2023-04-15T18:56:50.137Z,1.00
2023-04-15T18:59:29.056Z,1.40
2023-04-15T19:01:58.935Z,1.47
2023-04-15T19:04:28.880Z,1.87
2023-04-15T19:06:57.052Z,1.47
2023-04-15T19:09:26.345Z,2.57
2023-04-15T19:11:54.203Z,3.33
2023-04-15T19:14:22.073Z,3.20
2023-04-15T19:16:49.851Z,2.30
2023-04-15T19:19:18.037Z,3.03
2023-04-15T19:21:47.504Z,1.80
2023-04-15T19:24:15.232Z,1.50
2023-04-15T19:26:44.728Z,1.83
2023-04-15T19:29:12.512Z,1.47
2023-04-15T19:31:40.288Z,2.30
2023-04-15T19:34:08.033Z,2.07
2023-04-15T19:36:35.900Z,2.63
2023-04-15T19:39:04.141Z,2.67
2023-04-15T19:41:32.166Z,2.17
2023-04-15T19:44:03.051Z,2.00
2023-04-15T19:46:30.990Z,1.63
2023-04-15T19:48:59.098Z,2.40
2023-04-15T19:51:28.689Z,3.27
2023-04-15T19:53:56.879Z,3.60
2023-04-15T19:56:25.140Z,1.90
2023-04-15T19:58:53.925Z,2.13
2023-04-15T20:01:23.635Z,2.00
2023-04-15T20:03:53.952Z,2.50
2023-04-15T20:06:22.547Z,2.30
2023-04-15T20:08:50.266Z,3.07
2023-04-15T20:11:18.186Z,2.50
2023-04-15T20:13:45.931Z,2.70
2023-04-15T20:16:13.838Z,2.20
2023-04-15T20:18:45.895Z,3.27
2023-04-15T20:21:13.921Z,2.47
2023-04-15T20:23:42.413Z,2.57
2023-04-15T20:26:10.504Z,1.90
2023-04-15T20:28:38.394Z,2.00
2023-04-15T20:31:06.117Z,2.43
2023-04-15T20:33:33.956Z,2.83
2023-04-15T20:36:03.145Z,2.43
2023-04-15T20:38:30.985Z,2.40
2023-04-15T20:40:58.878Z,2.73
2023-04-15T20:43:27.100Z,2.80
2023-04-15T20:45:57.547Z,3.07
2023-04-15T20:48:26.471Z,2.00
2023-04-15T20:50:54.277Z,2.17
2023-04-15T20:53:23.476Z,2.70
2023-04-15T20:55:51.388Z,3.93
2023-04-15T20:58:19.134Z,3.30
2023-04-15T21:00:47.129Z,3.37
2023-04-15T21:03:15.132Z,3.50
2023-04-15T21:05:43.114Z,3.87
2023-04-15T21:08:11.111Z,3.00
2023-04-15T21:10:40.449Z,2.63
2023-04-15T21:13:08.736Z,2.57
2023-04-15T21:15:36.639Z,2.37
2023-04-15T21:18:04.448Z,3.03
2023-04-15T21:20:32.381Z,2.13
2023-04-15T21:23:00.117Z,2.50
2023-04-15T21:25:27.948Z,2.20
2023-04-15T21:27:57.055Z,2.27
2023-04-15T21:30:25.605Z,2.80
2023-04-15T21:32:53.311Z,2.17
2023-04-15T21:35:21.269Z,2.53
2023-04-15T21:37:49.081Z,3.33
2023-04-15T21:40:18.604Z,2.17
2023-04-15T21:42:47.477Z,2.63
2023-04-15T21:45:16.928Z,2.33
2023-04-15T21:47:56.730Z,2.17
2023-04-15T21:50:32.538Z,1.97
2023-04-15T21:53:02.447Z,2.60
2023-04-15T21:55:31.333Z,2.17
2023-04-15T21:57:59.006Z,2.27
2023-04-15T22:00:28.121Z,2.50
2023-04-15T22:02:56.149Z,2.90
2023-04-15T22:05:24.008Z,2.43
2023-04-15T22:07:51.867Z,2.83
2023-04-15T22:10:20.846Z,2.53
2023-04-15T22:12:48.677Z,2.20
2023-04-15T22:15:16.755Z,2.93
2023-04-15T22:17:46.785Z,2.40
2023-04-15T22:20:15.825Z,2.80
2023-04-15T22:22:44.845Z,2.30
2023-04-15T22:25:13.077Z,2.93
2023-04-15T22:27:40.849Z,2.97
2023-04-15T22:30:09.980Z,2.20
2023-04-15T22:32:37.974Z,3.53
2023-04-15T22:35:08.275Z,3.73
2023-04-15T22:37:36.134Z,2.77
2023-04-15T22:40:03.992Z,3.23
2023-04-15T22:42:31.749Z,2.97
2023-04-15T22:44:59.487Z,2.13
2023-04-15T22:47:27.436Z,2.50
2023-04-15T22:49:55.212Z,2.30
2023-04-15T22:52:30.510Z,3.00
2023-04-15T22:54:59.161Z,2.10
2023-04-15T22:57:27.918Z,2.50
2023-04-15T22:59:55.973Z,2.43
2023-04-15T23:02:23.902Z,2.10
2023-04-15T23:04:52.285Z,3.10
2023-04-15T23:07:20.102Z,2.77
2023-04-15T23:09:49.312Z,2.60
2023-04-15T23:12:17.101Z,2.40
2023-04-15T23:14:44.844Z,2.50
2023-04-15T23:17:12.702Z,3.20
2023-04-15T23:19:40.623Z,2.67
2023-04-15T23:22:10.666Z,3.30
2023-04-15T23:24:38.530Z,2.90
2023-04-15T23:27:07.697Z,2.60
2023-04-15T23:29:36.104Z,2.13
2023-04-15T23:32:04.053Z,2.67
2023-04-15T23:34:31.916Z,2.70
2023-04-15T23:36:59.785Z,1.80
2023-04-15T23:39:27.597Z,3.13
2023-04-15T23:41:56.290Z,2.10
2023-04-15T23:44:25.576Z,2.97
2023-04-15T23:46:53.351Z,2.00
2023-04-15T23:49:21.213Z,1.70
2023-04-15T23:51:48.963Z,1.80
2023-04-15T23:54:16.709Z,2.37
2023-04-15T23:56:44.403Z,2.20
2023-04-15T23:59:12.193Z,2.10
